Terminal Aerodrome Forecast
Issued by NWS Bismarck, ND

Home | Current Version | Previous Version | Graphics & Text | Print | Product List | Glossary On
Versions: 1 2 3 4 5 6 7 8 9 10 11 12 13 14 15 16 17 18 19 20 21 22 23 24
000
FTUS43 KBIS 251729
TAFISN
TAF
KISN 251729Z 2518/2618 34014KT 6SM -SHRA VCTS SCT015 BKN025
      OVC040CB
      TEMPO 2518/2521 3SM TSRA BKN025 OVC040CB
     FM252100 01010KT P6SM -SHRA SCT015 OVC030
      TEMPO 2521/2524 2SM TSRA BKN015 OVC030CB
     FM260000 35009KT P6SM -SHRA VCTS OVC045CB
     FM260300 32006KT P6SM OVC070
     FM261000 30006KT P6SM BKN015
     FM261600 29008KT P6SM BKN035=

USA.gov is the U.S. government's official web portal to all federal, state and local government web resources and services.